createdAt,value
2023-09-01T00:02:18.848Z,12.87
2023-09-01T00:06:34.027Z,12.83
2023-09-01T00:10:40.381Z,12.83
2023-09-01T00:14:41.857Z,13.02
2023-09-01T00:18:43.417Z,12.62
2023-09-01T00:22:44.873Z,12.71
2023-09-01T00:26:46.333Z,12.79
2023-09-01T00:30:55.384Z,12.67
2023-09-01T00:34:58.097Z,12.76
2023-09-01T00:38:59.576Z,12.73
2023-09-01T00:43:01.510Z,12.48
2023-09-01T00:47:03.187Z,12.32
2023-09-01T00:51:04.718Z,12.59
2023-09-01T00:55:06.534Z,12.49
2023-09-01T00:59:08.186Z,12.15
2023-09-01T01:03:11.662Z,12.45
2023-09-01T01:07:31.252Z,12.25
2023-09-01T01:11:56.251Z,12.23
2023-09-01T01:15:59.913Z,11.74
2023-09-01T01:20:17.335Z,11.81
2023-09-01T01:24:19.109Z,11.73
2023-09-01T01:28:23.406Z,11.64
2023-09-01T01:32:25.048Z,12.09
2023-09-01T01:36:46.825Z,12.31
2023-09-01T01:40:53.057Z,12.26
2023-09-01T01:44:58.067Z,12.06
2023-09-01T01:48:59.628Z,12.34
2023-09-01T01:53:01.182Z,12.25
2023-09-01T01:57:03.019Z,12.46
2023-09-01T02:01:08.271Z,12.37
2023-09-01T02:05:10.626Z,12.44
2023-09-01T02:09:13.357Z,12.26
2023-09-01T02:13:14.847Z,12.28
2023-09-01T02:17:16.364Z,12.17
2023-09-01T02:21:21.508Z,12.44
2023-09-01T02:25:23.006Z,12.04
2023-09-01T02:29:24.552Z,12.08
2023-09-01T02:33:26.057Z,12.15
2023-09-01T02:37:28.073Z,12.16
2023-09-01T02:41:29.660Z,12.30
2023-09-01T02:45:32.150Z,12.16
2023-09-01T02:49:33.647Z,12.26
2023-09-01T02:53:35.932Z,12.28
2023-09-01T02:57:37.683Z,12.34
2023-09-01T03:01:39.857Z,12.32
2023-09-01T03:05:41.420Z,12.54
2023-09-01T03:09:43.373Z,12.45
2023-09-01T03:13:44.923Z,12.58
2023-09-01T03:17:46.649Z,12.45
2023-09-01T03:21:48.564Z,12.68
2023-09-01T03:25:56.907Z,12.69
2023-09-01T03:30:01.802Z,12.42
2023-09-01T03:34:08.518Z,12.67
2023-09-01T03:38:10.399Z,12.61
2023-09-01T03:42:12.075Z,12.56
2023-09-01T03:46:14.133Z,12.71
2023-09-01T03:50:15.908Z,12.55
2023-09-01T03:54:17.793Z,12.70
2023-09-01T03:58:19.330Z,12.94
2023-09-01T04:02:21.041Z,12.84
2023-09-01T04:06:22.590Z,12.82
2023-09-01T04:10:24.341Z,12.86
2023-09-01T04:14:25.954Z,12.82
2023-09-01T04:18:27.635Z,12.91
2023-09-01T04:22:29.217Z,12.92
2023-09-01T04:26:30.766Z,13.02
2023-09-01T04:30:32.421Z,13.07
2023-09-01T04:34:34.289Z,13.08
2023-09-01T04:38:36.246Z,13.06
2023-09-01T04:42:38.034Z,13.04
2023-09-01T04:46:39.909Z,13.08
2023-09-01T04:50:41.650Z,12.97
2023-09-01T04:54:43.657Z,12.89
2023-09-01T04:58:45.325Z,13.13
2023-09-01T05:02:47.185Z,13.23
2023-09-01T05:06:48.769Z,13.35
2023-09-01T05:10:52.146Z,13.28
2023-09-01T05:14:54.433Z,13.24
2023-09-01T05:18:55.939Z,13.48
2023-09-01T05:22:57.452Z,13.59
2023-09-01T05:26:59.173Z,13.80
2023-09-01T05:31:00.748Z,14.03
2023-09-01T05:35:06.836Z,13.94
2023-09-01T05:39:08.422Z,13.95
2023-09-01T05:43:10.006Z,13.91
2023-09-01T05:47:12.328Z,13.94
2023-09-01T05:51:13.903Z,14.06
2023-09-01T05:55:15.704Z,13.90
2023-09-01T05:59:17.352Z,14.30
2023-09-01T06:03:18.994Z,14.59
2023-09-01T06:07:20.626Z,14.49
2023-09-01T06:11:22.413Z,14.62
2023-09-01T06:15:23.946Z,14.95
2023-09-01T06:19:25.408Z,14.65
2023-09-01T06:23:26.922Z,14.90
2023-09-01T06:27:28.471Z,15.28
2023-09-01T06:31:29.937Z,15.41
2023-09-01T06:35:31.420Z,15.43
2023-09-01T06:39:33.402Z,15.45
2023-09-01T06:43:35.220Z,15.78
2023-09-01T06:47:37.262Z,15.74
2023-09-01T06:51:41.180Z,15.41
2023-09-01T06:55:48.176Z,15.54
2023-09-01T06:59:49.728Z,15.62
2023-09-01T07:03:51.750Z,15.75
2023-09-01T07:07:53.660Z,16.09
2023-09-01T07:11:55.356Z,16.35
2023-09-01T07:15:57.093Z,16.28
2023-09-01T07:19:58.765Z,16.26
2023-09-01T07:24:00.304Z,16.34
2023-09-01T07:28:01.793Z,16.32
2023-09-01T07:32:04.547Z,16.74
2023-09-01T07:36:08.689Z,16.14
2023-09-01T07:40:10.666Z,16.55
2023-09-01T07:44:17.388Z,16.08
2023-09-01T07:48:22.793Z,16.34
2023-09-01T07:52:24.833Z,16.07
2023-09-01T07:56:26.312Z,16.27
2023-09-01T08:00:27.781Z,16.89
2023-09-01T08:04:29.476Z,17.00
2023-09-01T08:08:31.676Z,17.39
2023-09-01T08:12:34.016Z,16.76
2023-09-01T08:16:35.530Z,17.39
2023-09-01T08:20:37.164Z,17.33
2023-09-01T08:24:38.632Z,17.20
2023-09-01T08:28:40.124Z,16.59
2023-09-01T08:32:43.747Z,16.46
2023-09-01T08:36:45.457Z,16.78
2023-09-01T08:40:49.261Z,16.94
2023-09-01T08:44:53.382Z,16.93
2023-09-01T08:48:55.740Z,17.69
2023-09-01T08:52:57.864Z,17.64
2023-09-01T08:56:59.563Z,18.32
2023-09-01T09:01:01.233Z,18.45
2023-09-01T09:05:03.806Z,18.79
2023-09-01T09:09:20.065Z,18.65
2023-09-01T09:13:32.251Z,18.91
2023-09-01T09:17:46.084Z,18.43
2023-09-01T09:21:48.635Z,18.10
2023-09-01T09:25:50.681Z,18.14
2023-09-01T09:29:52.510Z,18.20
2023-09-01T09:33:54.052Z,18.40
2023-09-01T09:37:59.306Z,18.26
2023-09-01T09:42:00.907Z,18.20
2023-09-01T09:46:02.689Z,18.35
2023-09-01T09:50:04.712Z,18.25
2023-09-01T09:54:11.051Z,18.03
2023-09-01T09:58:13.263Z,18.30
2023-09-01T10:02:36.992Z,18.60
2023-09-01T10:06:40.418Z,19.03
2023-09-01T10:10:43.519Z,19.21
2023-09-01T10:14:45.895Z,18.86
2023-09-01T10:18:48.870Z,19.74
2023-09-01T10:22:50.550Z,19.52
2023-09-01T10:27:09.011Z,19.05
2023-09-01T10:31:24.483Z,19.29
2023-09-01T10:35:46.533Z,18.90
2023-09-01T10:39:47.998Z,18.95
2023-09-01T10:43:53.071Z,19.17
2023-09-01T10:47:55.477Z,19.27
2023-09-01T10:52:17.741Z,18.88
2023-09-01T10:56:21.334Z,18.80
2023-09-01T11:00:33.448Z,18.97
2023-09-01T11:04:35.451Z,19.27
2023-09-01T11:08:37.067Z,19.58
2023-09-01T11:12:38.738Z,18.98
2023-09-01T11:16:45.360Z,18.70
2023-09-01T11:20:55.488Z,19.08
2023-09-01T11:24:57.136Z,19.23
2023-09-01T11:29:00.137Z,18.78
2023-09-01T11:33:11.131Z,18.82
2023-09-01T11:37:12.721Z,19.13
2023-09-01T11:41:17.309Z,19.38
2023-09-01T11:45:19.632Z,19.09
2023-09-01T11:49:21.457Z,18.91
2023-09-01T11:53:24.481Z,19.25
2023-09-01T11:57:26.242Z,19.46
2023-09-01T12:01:36.938Z,19.27
2023-09-01T12:05:40.376Z,19.26
2023-09-01T12:09:41.963Z,19.77
2023-09-01T12:13:46.924Z,19.27
2023-09-01T12:17:48.686Z,19.71
2023-09-01T12:21:51.583Z,19.15
2023-09-01T12:25:53.595Z,19.19
2023-09-01T12:29:55.425Z,19.34
2023-09-01T12:33:57.028Z,19.02
2023-09-01T12:37:58.594Z,19.17
2023-09-01T12:42:00.204Z,19.76
2023-09-01T12:46:01.958Z,19.95
2023-09-01T12:50:04.384Z,20.12
2023-09-01T12:54:06.212Z,20.17
2023-09-01T12:58:08.390Z,19.84
2023-09-01T13:02:09.866Z,19.69
2023-09-01T13:06:12.056Z,19.65
2023-09-01T13:10:17.195Z,19.93
2023-09-01T13:14:18.820Z,19.92
2023-09-01T13:18:37.903Z,19.99
2023-09-01T13:22:40.391Z,19.14
2023-09-01T13:26:42.118Z,19.05
2023-09-01T13:30:45.416Z,19.18
2023-09-01T13:34:47.080Z,18.92
2023-09-01T13:38:50.931Z,19.15
2023-09-01T13:42:53.586Z,19.87
2023-09-01T13:46:55.663Z,19.63
2023-09-01T13:50:57.407Z,20.24
2023-09-01T13:54:59.172Z,20.30
2023-09-01T13:59:00.740Z,20.29
2023-09-01T14:03:02.533Z,19.79
2023-09-01T14:07:04.515Z,20.09
2023-09-01T14:11:06.543Z,19.94
2023-09-01T14:15:08.351Z,20.46
2023-09-01T14:19:10.023Z,20.22
2023-09-01T14:23:11.911Z,20.67
2023-09-01T14:27:13.477Z,20.58
2023-09-01T14:31:16.160Z,20.02
2023-09-01T14:35:18.197Z,19.93
2023-09-01T14:39:21.263Z,20.31
2023-09-01T14:43:22.818Z,20.07
2023-09-01T14:47:28.258Z,19.97
2023-09-01T14:51:30.497Z,20.05
2023-09-01T14:55:33.228Z,19.96
2023-09-01T14:59:35.506Z,20.32
2023-09-01T15:03:37.433Z,19.20
2023-09-01T15:07:40.375Z,19.09
2023-09-01T15:11:42.076Z,18.80
2023-09-01T15:15:43.741Z,18.75
2023-09-01T15:19:47.797Z,18.88
2023-09-01T15:23:50.531Z,18.69
2023-09-01T15:27:52.121Z,18.91
2023-09-01T15:31:53.973Z,18.95
2023-09-01T15:35:59.830Z,19.00
2023-09-01T15:40:03.904Z,19.34
2023-09-01T15:44:05.459Z,19.75
2023-09-01T15:48:07.591Z,20.37
2023-09-01T15:52:10.777Z,20.60
2023-09-01T15:56:13.787Z,20.93
2023-09-01T16:00:15.601Z,20.38
2023-09-01T16:04:17.356Z,19.68
2023-09-01T16:08:19.209Z,19.89
2023-09-01T16:12:20.840Z,19.62
2023-09-01T16:16:22.369Z,19.35
2023-09-01T16:20:28.595Z,19.33
2023-09-01T16:24:30.377Z,19.59
2023-09-01T16:28:32.140Z,19.41
2023-09-01T16:32:34.306Z,19.60
2023-09-01T16:36:35.929Z,19.44
2023-09-01T16:40:37.601Z,19.38
2023-09-01T16:44:39.460Z,19.24
2023-09-01T16:48:41.262Z,19.92
2023-09-01T16:52:43.008Z,19.40
2023-09-01T16:56:44.534Z,19.29
2023-09-01T17:00:46.938Z,18.74
2023-09-01T17:04:48.576Z,18.47
2023-09-01T17:08:50.103Z,18.79
2023-09-01T17:12:52.800Z,18.57
2023-09-01T17:16:54.587Z,18.33
2023-09-01T17:20:57.753Z,18.51
2023-09-01T17:24:59.342Z,18.33
2023-09-01T17:29:01.273Z,18.10
2023-09-01T17:33:02.930Z,18.32
2023-09-01T17:37:05.670Z,18.02
2023-09-01T17:41:07.284Z,17.95
2023-09-01T17:45:09.341Z,17.86
2023-09-01T17:49:10.989Z,18.10
2023-09-01T17:53:13.096Z,18.00
2023-09-01T17:57:14.835Z,18.01
2023-09-01T18:01:17.286Z,17.56
2023-09-01T18:05:19.317Z,17.81
2023-09-01T18:09:21.180Z,17.68
2023-09-01T18:13:23.077Z,17.53
2023-09-01T18:17:24.830Z,17.42
2023-09-01T18:21:30.905Z,17.27
2023-09-01T18:25:34.636Z,17.40
2023-09-01T18:29:37.028Z,17.29
2023-09-01T18:33:42.249Z,16.89
2023-09-01T18:37:45.235Z,16.87
2023-09-01T18:41:47.591Z,16.86
2023-09-01T18:45:49.424Z,16.65
2023-09-01T18:49:52.795Z,16.38
2023-09-01T18:53:54.472Z,16.44
2023-09-01T18:57:56.184Z,16.23
2023-09-01T19:01:59.501Z,16.11
2023-09-01T19:06:01.950Z,16.04
2023-09-01T19:10:16.095Z,15.89
2023-09-01T19:14:20.767Z,15.86
2023-09-01T19:18:29.712Z,15.89
2023-09-01T19:22:31.358Z,15.90
2023-09-01T19:26:33.433Z,15.96
2023-09-01T19:30:35.354Z,15.91
2023-09-01T19:34:37.083Z,15.86
2023-09-01T19:38:38.702Z,15.84
2023-09-01T19:42:40.217Z,15.59
2023-09-01T19:46:41.712Z,15.74
2023-09-01T19:50:43.831Z,15.84
2023-09-01T19:54:45.643Z,15.70
2023-09-01T19:58:49.767Z,15.75
2023-09-01T20:02:56.738Z,15.37
2023-09-01T20:06:58.978Z,15.45
2023-09-01T20:11:00.596Z,15.42
2023-09-01T20:15:02.089Z,15.24
2023-09-01T20:19:14.842Z,15.37
2023-09-01T20:23:16.621Z,15.31
2023-09-01T20:27:18.483Z,15.37
2023-09-01T20:31:20.175Z,15.35
2023-09-01T20:35:22.688Z,15.50
2023-09-01T20:39:24.209Z,15.45
2023-09-01T20:43:25.719Z,15.35
2023-09-01T20:47:27.301Z,15.30
2023-09-01T20:51:29.082Z,15.07
2023-09-01T20:55:31.260Z,14.82
2023-09-01T20:59:32.859Z,14.69
2023-09-01T21:03:34.498Z,14.84
2023-09-01T21:07:37.673Z,14.99
2023-09-01T21:11:39.208Z,14.95
2023-09-01T21:15:40.907Z,14.96
2023-09-01T21:19:42.363Z,14.75
2023-09-01T21:23:43.812Z,14.58
2023-09-01T21:27:45.334Z,14.42
2023-09-01T21:31:47.186Z,14.60
2023-09-01T21:35:49.124Z,14.92
2023-09-01T21:39:51.002Z,14.60
2023-09-01T21:43:52.652Z,14.77
2023-09-01T21:47:54.433Z,15.07
2023-09-01T21:51:56.208Z,15.23
2023-09-01T21:55:57.929Z,15.37
2023-09-01T21:59:59.427Z,15.23
2023-09-01T22:04:01.369Z,15.09
2023-09-01T22:08:04.227Z,15.12
2023-09-01T22:12:06.292Z,15.20
2023-09-01T22:16:10.917Z,15.37
2023-09-01T22:20:13.033Z,15.31
2023-09-01T22:24:14.974Z,15.04
2023-09-01T22:28:16.630Z,15.07
2023-09-01T22:32:18.217Z,15.22
2023-09-01T22:36:19.701Z,15.18
2023-09-01T22:40:21.691Z,15.07
2023-09-01T22:44:23.131Z,15.27
2023-09-01T22:48:24.600Z,15.23
2023-09-01T22:52:26.385Z,15.35
2023-09-01T22:56:28.040Z,15.29
2023-09-01T23:00:30.644Z,15.43
2023-09-01T23:04:32.341Z,15.50
2023-09-01T23:08:33.838Z,15.19
2023-09-01T23:12:35.409Z,15.13
2023-09-01T23:16:37.029Z,15.00
2023-09-01T23:20:38.649Z,14.96
2023-09-01T23:24:40.294Z,15.18
2023-09-01T23:28:41.896Z,15.07
2023-09-01T23:32:43.587Z,14.97
2023-09-01T23:36:45.354Z,15.19
2023-09-01T23:40:47.504Z,14.96
2023-09-01T23:44:49.360Z,15.01
2023-09-01T23:48:51.024Z,15.12
2023-09-01T23:52:52.814Z,14.82
2023-09-01T23:56:54.466Z,14.94
